createdAt,value
2023-04-10T00:00:02.972Z,31.74
2023-04-10T00:00:33.403Z,31.74
2023-04-10T00:01:03.843Z,31.74
2023-04-10T00:01:34.293Z,31.74
2023-04-10T00:02:04.842Z,31.74
2023-04-10T00:02:35.381Z,31.74
2023-04-10T00:03:06.239Z,31.74
2023-04-10T00:03:36.892Z,31.74
2023-04-10T00:04:07.504Z,31.74
2023-04-10T00:04:38.092Z,31.74
2023-04-10T00:05:08.595Z,31.74
2023-04-10T00:05:39.033Z,31.84
2023-04-10T00:06:09.484Z,31.84
2023-04-10T00:06:39.904Z,31.84
2023-04-10T00:07:10.316Z,31.74
2023-04-10T00:07:40.742Z,31.74
2023-04-10T00:08:11.160Z,31.74
2023-04-10T00:08:41.581Z,31.74
2023-04-10T00:09:12.014Z,31.74
2023-04-10T00:09:42.446Z,31.74
2023-04-10T00:10:12.879Z,31.74
2023-04-10T00:10:43.312Z,31.74
2023-04-10T00:11:13.722Z,31.74
2023-04-10T00:11:44.140Z,31.74
2023-04-10T00:12:14.572Z,31.74
2023-04-10T00:12:44.987Z,31.84
2023-04-10T00:13:15.405Z,31.74
2023-04-10T00:13:45.821Z,31.74
2023-04-10T00:14:16.251Z,31.74
2023-04-10T00:14:46.676Z,31.74
2023-04-10T00:15:17.098Z,31.74
2023-04-10T00:15:47.514Z,31.84
2023-04-10T00:16:17.968Z,31.74
2023-04-10T00:16:48.412Z,31.74
2023-04-10T00:17:18.792Z,31.74
2023-04-10T00:17:49.249Z,31.74
2023-04-10T00:18:19.653Z,31.74
2023-04-10T00:18:50.076Z,31.74
2023-04-10T00:19:20.499Z,31.74
2023-04-10T00:19:50.922Z,31.74
2023-04-10T00:20:21.345Z,31.84
2023-04-10T00:20:51.786Z,31.84
2023-04-10T00:21:22.221Z,31.84
2023-04-10T00:21:52.646Z,31.74
2023-04-10T00:22:23.066Z,31.74
2023-04-10T00:22:53.489Z,31.84
2023-04-10T00:23:23.920Z,31.74
2023-04-10T00:23:54.625Z,31.74
2023-04-10T00:24:25.174Z,31.74
2023-04-10T00:24:55.593Z,31.74
2023-04-10T00:25:26.015Z,31.74
2023-04-10T00:25:56.463Z,31.74
2023-04-10T00:26:26.913Z,31.74
2023-04-10T00:26:57.306Z,31.74
2023-04-10T00:27:27.724Z,31.74
2023-04-10T00:27:58.160Z,31.74
2023-04-10T00:28:28.573Z,31.84
2023-04-10T00:28:58.993Z,31.84
2023-04-10T00:29:29.436Z,31.84
2023-04-10T00:29:59.878Z,31.84
2023-04-10T00:30:30.288Z,31.74
2023-04-10T00:31:00.715Z,31.74
2023-04-10T00:31:31.169Z,31.74
2023-04-10T00:32:01.664Z,31.74
2023-04-10T00:32:32.069Z,31.74
2023-04-10T00:33:02.532Z,31.74
2023-04-10T00:33:32.950Z,31.74
2023-04-10T00:34:03.372Z,31.84
2023-04-10T00:34:33.796Z,31.74
2023-04-10T00:35:04.219Z,31.74
2023-04-10T00:35:34.662Z,31.84
2023-04-10T00:36:05.128Z,31.84
2023-04-10T00:36:35.518Z,31.74
2023-04-10T00:37:05.936Z,31.74
2023-04-10T00:37:36.377Z,31.74
2023-04-10T00:38:06.802Z,31.84
2023-04-10T00:38:37.232Z,31.74
2023-04-10T00:39:07.673Z,31.74
2023-04-10T00:39:38.074Z,31.84
2023-04-10T00:40:08.500Z,31.84
2023-04-10T00:40:38.916Z,31.84
2023-04-10T00:41:09.381Z,31.84
2023-04-10T00:41:39.897Z,31.84
2023-04-10T00:42:10.313Z,31.84
2023-04-10T00:42:40.735Z,31.84
2023-04-10T00:43:11.160Z,31.84
2023-04-10T00:43:41.578Z,31.74
2023-04-10T00:44:12.011Z,31.84
2023-04-10T00:44:42.417Z,31.74
2023-04-10T00:45:12.838Z,31.84
2023-04-10T00:45:43.291Z,31.84
2023-04-10T00:46:13.830Z,31.74
2023-04-10T00:46:44.342Z,31.74
2023-04-10T00:47:14.744Z,31.74
2023-04-10T00:47:45.199Z,31.74
2023-04-10T00:48:15.595Z,31.84
2023-04-10T00:48:46.007Z,31.84
2023-04-10T00:49:16.430Z,31.74
2023-04-10T00:49:46.847Z,31.84
2023-04-10T00:50:17.310Z,31.74
2023-04-10T00:50:47.698Z,31.74
2023-04-10T00:51:18.118Z,31.74
2023-04-10T00:51:48.548Z,31.74
2023-04-10T00:52:19.125Z,31.84
2023-04-10T00:52:49.580Z,31.74
2023-04-10T00:53:19.968Z,31.84
2023-04-10T00:53:50.399Z,31.84
2023-04-10T00:54:20.825Z,31.74
2023-04-10T00:54:51.260Z,31.84
2023-04-10T00:55:21.684Z,31.74
2023-04-10T00:55:52.107Z,31.74
2023-04-10T00:56:22.541Z,31.74
2023-04-10T00:56:52.987Z,31.74
2023-04-10T00:57:23.409Z,31.74
2023-04-10T00:57:53.841Z,31.74
2023-04-10T00:58:24.262Z,31.74
2023-04-10T00:58:54.682Z,31.74
2023-04-10T00:59:25.105Z,31.74
2023-04-10T00:59:55.524Z,31.74
2023-04-10T01:00:25.949Z,31.64
2023-04-10T01:00:56.420Z,31.74
2023-04-10T01:01:26.847Z,31.74
2023-04-10T01:01:57.346Z,31.74
2023-04-10T01:02:27.993Z,31.74
2023-04-10T01:02:58.524Z,31.74
2023-04-10T01:03:29.350Z,31.74
2023-04-10T01:04:00.398Z,31.74
2023-04-10T01:04:31.101Z,31.74
2023-04-10T01:05:01.548Z,31.74
2023-04-10T01:05:31.980Z,31.74
2023-04-10T01:06:02.405Z,31.74
2023-04-10T01:06:32.822Z,31.64
2023-04-10T01:07:03.255Z,31.74
2023-04-10T01:07:33.676Z,31.64
2023-04-10T01:08:04.096Z,31.64
2023-04-10T01:08:34.530Z,31.64
2023-04-10T01:09:04.943Z,31.74
2023-04-10T01:09:35.407Z,31.64
2023-04-10T01:10:05.800Z,31.64
2023-04-10T01:10:36.224Z,31.64
2023-04-10T01:11:06.637Z,31.64
2023-04-10T01:11:37.084Z,31.64
2023-04-10T01:12:07.495Z,31.64
2023-04-10T01:12:37.920Z,31.64
2023-04-10T01:13:08.348Z,31.64
2023-04-10T01:13:38.769Z,31.64
2023-04-10T01:14:09.199Z,31.64
2023-04-10T01:14:39.648Z,31.74
2023-04-10T01:15:10.043Z,31.64
2023-04-10T01:15:40.466Z,31.64
2023-04-10T01:16:10.895Z,31.64
2023-04-10T01:16:41.388Z,31.64
2023-04-10T01:17:12.093Z,31.64
2023-04-10T01:17:42.567Z,31.54
2023-04-10T01:18:12.986Z,31.54
2023-04-10T01:18:43.421Z,31.64
2023-04-10T01:19:13.842Z,31.54
2023-04-10T01:19:44.261Z,31.64
2023-04-10T01:20:14.685Z,31.64
2023-04-10T01:20:45.106Z,31.64
2023-04-10T01:21:15.526Z,31.64
2023-04-10T01:21:45.946Z,31.64
2023-04-10T01:22:16.390Z,31.64
2023-04-10T01:22:46.822Z,31.64
2023-04-10T01:23:17.250Z,31.64
2023-04-10T01:23:47.657Z,31.64
2023-04-10T01:24:18.080Z,31.64
2023-04-10T01:24:48.507Z,31.64
2023-04-10T01:25:18.925Z,31.64
2023-04-10T01:25:49.349Z,31.64
2023-04-10T01:26:19.769Z,31.64
2023-04-10T01:26:50.212Z,31.64
2023-04-10T01:27:20.618Z,31.64
2023-04-10T01:27:51.035Z,31.64
2023-04-10T01:28:21.481Z,31.64
2023-04-10T01:28:51.884Z,31.64
2023-04-10T01:29:22.309Z,31.64
2023-04-10T01:29:52.727Z,31.64
2023-04-10T01:30:23.156Z,31.64
2023-04-10T01:30:53.630Z,31.54
2023-04-10T01:31:24.045Z,31.64
2023-04-10T01:31:54.456Z,31.64
2023-04-10T01:32:24.930Z,31.64
2023-04-10T01:32:55.343Z,31.64
2023-04-10T01:33:25.752Z,31.64
2023-04-10T01:33:56.561Z,31.64
2023-04-10T01:34:27.202Z,31.64
2023-04-10T01:34:57.604Z,31.54
2023-04-10T01:35:28.041Z,31.54
2023-04-10T01:35:58.457Z,31.54
2023-04-10T01:36:28.880Z,31.64
2023-04-10T01:36:59.294Z,31.64
2023-04-10T01:37:29.741Z,31.54
2023-04-10T01:38:00.162Z,31.54
2023-04-10T01:38:30.589Z,31.54
2023-04-10T01:39:01.005Z,31.54
2023-04-10T01:39:31.425Z,31.64
2023-04-10T01:40:01.863Z,31.54
2023-04-10T01:40:32.293Z,31.64
2023-04-10T01:41:02.714Z,31.54
2023-04-10T01:41:33.132Z,31.54
2023-04-10T01:42:03.588Z,31.54
2023-04-10T01:42:34.004Z,31.54
2023-04-10T01:43:04.425Z,31.54
2023-04-10T01:43:34.864Z,31.54
2023-04-10T01:44:05.271Z,31.54
2023-04-10T01:44:35.690Z,31.64
2023-04-10T01:45:06.111Z,31.54
2023-04-10T01:45:36.537Z,31.54
2023-04-10T01:46:07.001Z,31.44
2023-04-10T01:46:37.397Z,31.44
2023-04-10T01:47:07.817Z,31.54
2023-04-10T01:47:38.279Z,31.54
2023-04-10T01:48:08.711Z,31.44
2023-04-10T01:48:39.107Z,31.54
2023-04-10T01:49:09.516Z,31.44
2023-04-10T01:49:39.940Z,31.54
2023-04-10T01:50:10.371Z,31.54
2023-04-10T01:50:40.793Z,31.44
2023-04-10T01:51:11.218Z,31.54
2023-04-10T01:51:41.631Z,31.44
2023-04-10T01:52:12.052Z,31.44
2023-04-10T01:52:42.490Z,31.44
2023-04-10T01:53:12.911Z,31.44
2023-04-10T01:53:43.328Z,31.44
2023-04-10T01:54:13.766Z,31.44
2023-04-10T01:54:44.176Z,31.44
2023-04-10T01:55:14.619Z,31.44
2023-04-10T01:55:45.024Z,31.44
2023-04-10T01:56:15.442Z,31.44
2023-04-10T01:56:45.869Z,31.44
2023-04-10T01:57:16.308Z,31.44
2023-04-10T01:57:46.737Z,31.54
2023-04-10T01:58:17.191Z,31.44
2023-04-10T01:58:47.604Z,31.44
2023-04-10T01:59:18.033Z,31.44
2023-04-10T01:59:48.472Z,31.44
2023-04-10T02:00:18.986Z,31.44
2023-04-10T02:00:49.399Z,31.44
2023-04-10T02:01:29.132Z,31.44
2023-04-10T02:01:55.267Z,31.44
2023-04-10T02:02:25.829Z,31.44
2023-04-10T02:02:56.489Z,31.34
2023-04-10T02:03:27.242Z,31.34
2023-04-10T02:03:58.061Z,31.44
2023-04-10T02:04:28.716Z,31.44
2023-04-10T02:04:59.181Z,31.44
2023-04-10T02:05:29.575Z,31.44
2023-04-10T02:05:59.994Z,31.44
2023-04-10T02:06:30.421Z,31.44
2023-04-10T02:07:00.854Z,31.44
2023-04-10T02:07:31.280Z,31.44
2023-04-10T02:08:01.716Z,31.34
2023-04-10T02:08:32.123Z,31.34
2023-04-10T02:09:02.537Z,31.34
2023-04-10T02:09:32.962Z,31.34
2023-04-10T02:10:03.399Z,31.34
2023-04-10T02:10:33.824Z,31.34
2023-04-10T02:11:04.242Z,31.34
2023-04-10T02:11:34.663Z,31.34
2023-04-10T02:12:05.085Z,31.34
2023-04-10T02:12:35.524Z,31.34
2023-04-10T02:13:05.940Z,31.44
2023-04-10T02:13:36.356Z,31.34
2023-04-10T02:14:06.774Z,31.34
2023-04-10T02:14:37.194Z,31.34
2023-04-10T02:15:07.627Z,31.34
2023-04-10T02:15:38.090Z,31.34
2023-04-10T02:16:08.569Z,31.34
2023-04-10T02:16:39.012Z,31.34
2023-04-10T02:17:09.433Z,31.34
2023-04-10T02:17:39.895Z,31.34
2023-04-10T02:18:10.285Z,31.34
2023-04-10T02:18:40.706Z,31.34
2023-04-10T02:19:11.141Z,31.34
2023-04-10T02:19:41.572Z,31.34
2023-04-10T02:20:12.003Z,31.34
2023-04-10T02:20:42.432Z,31.34
2023-04-10T02:21:12.842Z,31.34
2023-04-10T02:21:43.279Z,31.34
2023-04-10T02:22:13.685Z,31.34
2023-04-10T02:22:44.121Z,31.24
2023-04-10T02:23:14.547Z,31.24
2023-04-10T02:23:44.981Z,31.24
2023-04-10T02:24:15.407Z,31.24
2023-04-10T02:24:45.822Z,31.24
2023-04-10T02:25:16.259Z,31.24
2023-04-10T02:25:46.666Z,31.24
2023-04-10T02:26:17.089Z,31.24
2023-04-10T02:26:47.506Z,31.24
2023-04-10T02:27:17.933Z,31.24
2023-04-10T02:27:48.378Z,31.24
2023-04-10T02:28:18.788Z,31.24
2023-04-10T02:28:49.223Z,31.24
2023-04-10T02:29:19.636Z,31.24
2023-04-10T02:29:50.059Z,31.14
2023-04-10T02:30:20.489Z,31.14
2023-04-10T02:30:50.918Z,31.14
2023-04-10T02:31:21.360Z,31.14
2023-04-10T02:31:51.750Z,31.14
2023-04-10T02:32:22.170Z,31.14
2023-04-10T02:32:52.609Z,31.14
2023-04-10T02:33:23.031Z,31.14
2023-04-10T02:33:53.717Z,31.14
2023-04-10T02:34:24.279Z,31.14
2023-04-10T02:34:54.694Z,31.14
2023-04-10T02:35:25.134Z,31.14
2023-04-10T02:35:55.569Z,31.14
2023-04-10T02:36:25.966Z,31.14
2023-04-10T02:36:56.417Z,31.04
2023-04-10T02:37:26.814Z,31.04
2023-04-10T02:37:57.264Z,31.04
2023-04-10T02:38:27.700Z,31.04
2023-04-10T02:38:58.121Z,31.04
2023-04-10T02:39:28.542Z,30.94
2023-04-10T02:39:58.962Z,31.04
2023-04-10T02:40:29.383Z,31.04
2023-04-10T02:40:59.807Z,31.04
2023-04-10T02:41:30.233Z,31.04
2023-04-10T02:42:00.663Z,31.04
2023-04-10T02:42:31.083Z,31.04
2023-04-10T02:43:01.535Z,31.04
2023-04-10T02:43:31.944Z,31.04
2023-04-10T02:44:02.365Z,30.94
2023-04-10T02:44:32.786Z,30.94
2023-04-10T02:45:03.213Z,30.94
2023-04-10T02:45:33.633Z,30.94
2023-04-10T02:46:04.053Z,30.94
2023-04-10T02:46:34.540Z,30.93
2023-04-10T02:47:04.993Z,30.94
2023-04-10T02:47:35.416Z,30.93
2023-04-10T02:48:05.859Z,30.93
2023-04-10T02:48:36.258Z,30.82
2023-04-10T02:49:06.692Z,30.93
2023-04-10T02:49:37.103Z,30.93
2023-04-10T02:50:07.527Z,30.93
2023-04-10T02:50:37.944Z,30.93
2023-04-10T02:51:08.364Z,30.82
2023-04-10T02:51:38.792Z,30.93
2023-04-10T02:52:09.210Z,30.93
2023-04-10T02:52:39.633Z,30.93
2023-04-10T02:53:10.048Z,30.93
2023-04-10T02:53:40.491Z,30.82
2023-04-10T02:54:10.914Z,30.82
2023-04-10T02:54:41.334Z,30.82
2023-04-10T02:55:11.758Z,30.82
2023-04-10T02:55:42.175Z,30.82
2023-04-10T02:56:12.594Z,30.82
2023-04-10T02:56:43.020Z,30.82
2023-04-10T02:57:13.453Z,30.82
2023-04-10T02:57:43.873Z,30.82
2023-04-10T02:58:15.269Z,30.82
2023-04-10T02:58:45.719Z,30.82
2023-04-10T02:59:16.131Z,30.73
2023-04-10T02:59:46.543Z,30.73
2023-04-10T03:00:16.968Z,30.73
2023-04-10T03:00:47.421Z,30.73
2023-04-10T03:01:17.823Z,30.73
2023-04-10T03:01:48.285Z,30.73
2023-04-10T03:02:18.732Z,30.73
2023-04-10T03:02:49.491Z,30.73
2023-04-10T03:03:20.185Z,30.73
2023-04-10T03:03:50.725Z,30.73
2023-04-10T03:04:21.282Z,30.73
2023-04-10T03:04:51.770Z,30.73
2023-04-10T03:05:22.219Z,30.73
2023-04-10T03:05:52.646Z,30.62
2023-04-10T03:06:23.066Z,30.73
2023-04-10T03:06:53.487Z,30.62
2023-04-10T03:07:23.908Z,30.62
2023-04-10T03:07:54.332Z,30.62
2023-04-10T03:08:24.752Z,30.62
2023-04-10T03:08:55.184Z,30.62
2023-04-10T03:09:25.605Z,30.62
2023-04-10T03:09:56.027Z,30.62
2023-04-10T03:10:26.454Z,30.62
2023-04-10T03:10:56.890Z,30.62
2023-04-10T03:11:27.333Z,30.62
2023-04-10T03:11:57.741Z,30.62
2023-04-10T03:12:28.172Z,30.62
2023-04-10T03:12:58.603Z,30.62
2023-04-10T03:13:29.086Z,30.52
2023-04-10T03:13:59.522Z,30.62
2023-04-10T03:14:29.889Z,30.52
2023-04-10T03:15:00.315Z,30.62
2023-04-10T03:15:30.728Z,30.62
2023-04-10T03:16:01.200Z,30.52
2023-04-10T03:16:31.649Z,30.62
2023-04-10T03:17:02.122Z,30.52
2023-04-10T03:17:32.639Z,30.52
2023-04-10T03:18:03.073Z,30.62
2023-04-10T03:18:33.515Z,30.52
2023-04-10T03:19:03.939Z,30.52
2023-04-10T03:19:34.366Z,30.52
2023-04-10T03:20:04.784Z,30.62
2023-04-10T03:20:35.214Z,30.52
2023-04-10T03:21:05.639Z,30.52
2023-04-10T03:21:36.055Z,30.52
2023-04-10T03:22:06.476Z,30.52
2023-04-10T03:22:36.894Z,30.52
2023-04-10T03:23:07.322Z,30.52
2023-04-10T03:23:37.737Z,30.52
2023-04-10T03:24:08.170Z,30.52
2023-04-10T03:24:38.624Z,30.52
2023-04-10T03:25:09.048Z,30.52
2023-04-10T03:25:39.472Z,30.52
2023-04-10T03:26:09.915Z,30.52
2023-04-10T03:26:40.310Z,30.43
2023-04-10T03:27:10.732Z,30.43
2023-04-10T03:27:41.170Z,30.43
2023-04-10T03:28:11.585Z,30.43
2023-04-10T03:28:42.054Z,30.43
2023-04-10T03:29:12.426Z,30.43
2023-04-10T03:29:42.861Z,30.43
2023-04-10T03:30:13.284Z,30.43
2023-04-10T03:30:43.708Z,30.43
2023-04-10T03:31:14.200Z,30.43
2023-04-10T03:31:44.641Z,30.43
2023-04-10T03:32:15.074Z,30.43
2023-04-10T03:32:45.499Z,30.43
2023-04-10T03:33:15.986Z,30.43
2023-04-10T03:33:46.468Z,30.32
2023-04-10T03:34:16.874Z,30.32
2023-04-10T03:34:47.297Z,30.43
2023-04-10T03:35:17.731Z,30.43
2023-04-10T03:35:48.165Z,30.32
2023-04-10T03:36:18.583Z,30.32
2023-04-10T03:36:48.986Z,30.32
2023-04-10T03:37:19.402Z,30.32
2023-04-10T03:37:49.833Z,30.32
2023-04-10T03:38:20.257Z,30.32
2023-04-10T03:38:50.674Z,30.32
2023-04-10T03:39:21.110Z,30.32
2023-04-10T03:39:51.537Z,30.32
2023-04-10T03:40:21.965Z,30.32
2023-04-10T03:40:52.380Z,30.32
2023-04-10T03:41:25.297Z,30.32
2023-04-10T03:41:55.861Z,30.32
2023-04-10T03:42:26.282Z,30.32
2023-04-10T03:42:56.705Z,30.22
2023-04-10T03:43:27.125Z,30.22
2023-04-10T03:43:57.575Z,30.32
2023-04-10T03:44:28.111Z,30.32
2023-04-10T03:44:58.537Z,30.22
2023-04-10T03:45:28.967Z,30.22
2023-04-10T03:45:59.413Z,30.22
2023-04-10T03:46:29.911Z,30.22
2023-04-10T03:47:00.340Z,30.22
2023-04-10T03:47:30.754Z,30.22
2023-04-10T03:48:01.253Z,30.22
2023-04-10T03:48:31.674Z,30.22
2023-04-10T03:49:02.095Z,30.22
2023-04-10T03:49:32.540Z,30.22
2023-04-10T03:50:02.984Z,30.22
2023-04-10T03:50:33.397Z,30.22
2023-04-10T03:51:03.814Z,30.22
2023-04-10T03:51:34.225Z,30.22
2023-04-10T03:52:04.645Z,30.22
2023-04-10T03:52:35.072Z,30.22
2023-04-10T03:53:05.487Z,30.22
2023-04-10T03:53:35.998Z,30.12
2023-04-10T03:54:06.437Z,30.22
2023-04-10T03:54:36.887Z,30.22
2023-04-10T03:55:07.301Z,30.12
2023-04-10T03:55:37.728Z,30.12
2023-04-10T03:56:08.165Z,30.12
2023-04-10T03:56:38.571Z,30.12
2023-04-10T03:57:08.988Z,30.12
2023-04-10T03:57:39.409Z,30.12
2023-04-10T03:58:09.829Z,30.12
2023-04-10T03:58:40.253Z,30.12
2023-04-10T03:59:10.711Z,30.12
2023-04-10T03:59:41.126Z,30.12
2023-04-10T04:00:11.558Z,30.12
2023-04-10T04:00:41.965Z,30.12
2023-04-10T04:01:12.386Z,30.12
2023-04-10T04:01:42.918Z,30.12
2023-04-10T04:02:13.418Z,30.12
2023-04-10T04:02:43.985Z,30.12
2023-04-10T04:03:14.545Z,30.12
2023-04-10T04:03:45.156Z,30.12
2023-04-10T04:04:15.640Z,30.12
2023-04-10T04:04:46.232Z,30.12
2023-04-10T04:05:16.647Z,30.12
2023-04-10T04:05:47.072Z,30.12
2023-04-10T04:06:17.496Z,30.12
2023-04-10T04:06:47.921Z,30.12
2023-04-10T04:07:18.343Z,30.12
2023-04-10T04:07:48.781Z,30.12
2023-04-10T04:08:19.195Z,30.12
2023-04-10T04:08:49.616Z,30.12
2023-04-10T04:09:20.039Z,30.12
2023-04-10T04:09:50.471Z,30.12
2023-04-10T04:10:20.896Z,30.12
2023-04-10T04:10:51.313Z,30.12
2023-04-10T04:11:21.736Z,30.12
2023-04-10T04:11:52.158Z,30.12
2023-04-10T04:12:22.607Z,30.12
2023-04-10T04:12:53.023Z,30.12
2023-04-10T04:13:23.425Z,30.12
2023-04-10T04:13:54.146Z,30.12
2023-04-10T04:14:24.684Z,30.12
2023-04-10T04:14:55.098Z,30.12
2023-04-10T04:15:25.517Z,30.12
2023-04-10T04:15:55.939Z,30.02
2023-04-10T04:16:26.399Z,30.02
2023-04-10T04:16:56.873Z,30.12
2023-04-10T04:17:27.297Z,30.12
2023-04-10T04:17:57.747Z,30.02
2023-04-10T04:18:28.155Z,30.02
2023-04-10T04:18:58.588Z,30.02
2023-04-10T04:19:28.998Z,30.02
2023-04-10T04:19:59.437Z,30.02
2023-04-10T04:20:29.861Z,30.02
2023-04-10T04:21:00.283Z,30.02
2023-04-10T04:21:30.699Z,30.02
2023-04-10T04:22:01.121Z,30.02
2023-04-10T04:22:31.591Z,30.02
2023-04-10T04:23:01.967Z,30.02
2023-04-10T04:23:32.391Z,30.02
2023-04-10T04:24:02.809Z,30.02
2023-04-10T04:24:33.231Z,30.02
2023-04-10T04:25:03.695Z,30.02
2023-04-10T04:25:34.088Z,30.02
2023-04-10T04:26:04.518Z,30.02
2023-04-10T04:26:34.941Z,30.02
2023-04-10T04:27:05.366Z,30.02
2023-04-10T04:27:35.787Z,30.02
2023-04-10T04:28:06.204Z,30.02
2023-04-10T04:28:36.623Z,29.93
2023-04-10T04:29:07.056Z,29.93
2023-04-10T04:29:37.489Z,29.91
2023-04-10T04:30:07.904Z,30.01
2023-04-10T04:30:38.350Z,29.93
2023-04-10T04:31:08.755Z,29.93
2023-04-10T04:31:39.210Z,29.91
2023-04-10T04:32:09.650Z,29.93
2023-04-10T04:32:40.074Z,29.93
2023-04-10T04:33:10.454Z,29.91
2023-04-10T04:33:40.875Z,29.93
2023-04-10T04:34:11.300Z,29.93
2023-04-10T04:34:41.718Z,29.93
2023-04-10T04:35:12.178Z,29.91
2023-04-10T04:35:42.597Z,29.91
2023-04-10T04:36:13.028Z,29.91
2023-04-10T04:36:43.442Z,29.91
2023-04-10T04:37:13.853Z,29.91
2023-04-10T04:37:44.279Z,29.93
2023-04-10T04:38:14.694Z,29.91
2023-04-10T04:38:45.117Z,29.91
2023-04-10T04:39:15.557Z,29.91
2023-04-10T04:39:45.968Z,29.93
2023-04-10T04:40:16.419Z,29.81
2023-04-10T04:40:46.820Z,29.91
2023-04-10T04:41:19.378Z,29.91
2023-04-10T04:41:50.807Z,29.81
2023-04-10T04:42:21.230Z,29.81
2023-04-10T04:42:51.650Z,29.91
2023-04-10T04:43:22.072Z,29.81
2023-04-10T04:43:52.716Z,29.81
2023-04-10T04:44:23.236Z,29.81
2023-04-10T04:44:53.673Z,29.81
2023-04-10T04:45:24.252Z,29.81
2023-04-10T04:45:54.696Z,29.81
2023-04-10T04:46:25.233Z,29.81
2023-04-10T04:46:55.680Z,29.81
2023-04-10T04:47:26.114Z,29.81
2023-04-10T04:47:56.539Z,29.81
2023-04-10T04:48:26.940Z,29.81
2023-04-10T04:48:57.360Z,29.81
2023-04-10T04:49:27.781Z,29.81
2023-04-10T04:49:58.201Z,29.81
2023-04-10T04:50:28.648Z,29.81
2023-04-10T04:50:59.064Z,29.81
2023-04-10T04:51:29.491Z,29.81
2023-04-10T04:51:59.938Z,29.81
2023-04-10T04:52:30.363Z,29.81
2023-04-10T04:53:00.790Z,29.81
2023-04-10T04:53:31.228Z,29.81
2023-04-10T04:54:01.640Z,29.81
2023-04-10T04:54:32.064Z,29.81
2023-04-10T04:55:02.559Z,29.81
2023-04-10T04:55:32.938Z,29.81
2023-04-10T04:56:03.388Z,29.82
2023-04-10T04:56:33.807Z,29.81
2023-04-10T04:57:04.230Z,29.81
2023-04-10T04:57:34.645Z,29.81
2023-04-10T04:58:05.070Z,29.81
2023-04-10T04:58:35.512Z,29.81
2023-04-10T04:59:05.916Z,29.81
2023-04-10T04:59:36.341Z,29.81
2023-04-10T05:00:06.789Z,29.81
2023-04-10T05:00:37.200Z,29.81
2023-04-10T05:01:07.667Z,29.81
2023-04-10T05:01:38.176Z,29.81
2023-04-10T05:02:08.682Z,29.81
2023-04-10T05:02:39.231Z,29.81
2023-04-10T05:03:09.757Z,29.81
2023-04-10T05:03:40.363Z,29.81
2023-04-10T05:04:10.945Z,29.81
2023-04-10T05:04:41.385Z,29.81
2023-04-10T05:05:11.807Z,29.81
2023-04-10T05:05:42.240Z,29.81
2023-04-10T05:06:12.666Z,29.81
2023-04-10T05:06:43.096Z,29.81
2023-04-10T05:07:13.525Z,29.81
2023-04-10T05:07:43.934Z,29.81
2023-04-10T05:08:14.361Z,29.81
2023-04-10T05:08:44.819Z,29.81
2023-04-10T05:09:15.246Z,29.81
2023-04-10T05:09:45.684Z,29.81
2023-04-10T05:10:16.093Z,29.81
2023-04-10T05:10:46.541Z,29.81
2023-04-10T05:11:16.941Z,29.81
2023-04-10T05:11:47.358Z,29.71
2023-04-10T05:12:17.785Z,29.81
2023-04-10T05:12:48.206Z,29.71
2023-04-10T05:13:18.642Z,29.71
2023-04-10T05:13:49.062Z,29.71
2023-04-10T05:14:19.484Z,29.71
2023-04-10T05:14:49.907Z,29.71
2023-04-10T05:15:20.397Z,29.71
2023-04-10T05:15:50.809Z,29.71
2023-04-10T05:16:21.294Z,29.71
2023-04-10T05:16:51.763Z,29.71
2023-04-10T05:17:22.223Z,29.71
2023-04-10T05:17:52.809Z,29.71
2023-04-10T05:18:23.262Z,29.71
2023-04-10T05:18:54.223Z,29.71
2023-04-10T05:19:24.770Z,29.71
2023-04-10T05:19:55.197Z,29.71
2023-04-10T05:20:25.613Z,29.71
2023-04-10T05:20:56.062Z,29.71
2023-04-10T05:21:26.478Z,29.71
2023-04-10T05:21:56.899Z,29.71
2023-04-10T05:22:27.321Z,29.71
2023-04-10T05:22:57.744Z,29.71
2023-04-10T05:23:28.179Z,29.71
2023-04-10T05:23:58.601Z,29.71
2023-04-10T05:24:29.024Z,29.71
2023-04-10T05:24:59.450Z,29.71
2023-04-10T05:25:29.880Z,29.71
2023-04-10T05:26:00.324Z,29.71
2023-04-10T05:26:30.745Z,29.71
2023-04-10T05:27:01.167Z,29.61
2023-04-10T05:27:31.588Z,29.61
2023-04-10T05:28:02.106Z,29.61
2023-04-10T05:28:32.485Z,29.61
2023-04-10T05:29:02.910Z,29.61
2023-04-10T05:29:33.332Z,29.61
2023-04-10T05:30:03.756Z,29.61
2023-04-10T05:30:34.194Z,29.61
2023-04-10T05:31:04.650Z,29.61
2023-04-10T05:31:35.116Z,29.61
2023-04-10T05:32:05.667Z,29.61
2023-04-10T05:32:36.078Z,29.61
2023-04-10T05:33:06.512Z,29.61
2023-04-10T05:33:36.931Z,29.61
2023-04-10T05:34:07.348Z,29.61
2023-04-10T05:34:37.772Z,29.61
2023-04-10T05:35:08.193Z,29.60
2023-04-10T05:35:38.625Z,29.49
2023-04-10T05:36:09.120Z,29.49
2023-04-10T05:36:39.495Z,29.60
2023-04-10T05:37:09.916Z,29.49
2023-04-10T05:37:40.351Z,29.49
2023-04-10T05:38:10.766Z,29.60
2023-04-10T05:38:41.200Z,29.60
2023-04-10T05:39:11.615Z,29.49
2023-04-10T05:39:42.037Z,29.49
2023-04-10T05:40:12.461Z,29.49
2023-04-10T05:40:42.878Z,29.49
2023-04-10T05:41:13.325Z,29.49
2023-04-10T05:41:43.749Z,29.49
2023-04-10T05:42:14.169Z,29.49
2023-04-10T05:42:44.589Z,29.49
2023-04-10T05:43:15.010Z,29.49
2023-04-10T05:43:45.433Z,29.49
2023-04-10T05:44:15.853Z,29.49
2023-04-10T05:44:46.280Z,29.49
2023-04-10T05:45:16.720Z,29.49
2023-04-10T05:45:47.258Z,29.49
2023-04-10T05:46:17.652Z,29.49
2023-04-10T05:46:48.084Z,29.60
2023-04-10T05:47:18.553Z,29.49
2023-04-10T05:47:48.992Z,29.49
2023-04-10T05:48:19.378Z,29.49
2023-04-10T05:48:49.800Z,29.49
2023-04-10T05:49:20.242Z,29.49
2023-04-10T05:49:50.650Z,29.49
2023-04-10T05:50:22.947Z,29.49
2023-04-10T05:50:53.499Z,29.49
2023-04-10T05:51:23.938Z,29.49
2023-04-10T05:51:54.351Z,29.49
2023-04-10T05:52:24.784Z,29.49
2023-04-10T05:52:55.205Z,29.49
2023-04-10T05:53:25.629Z,29.49
2023-04-10T05:53:56.055Z,29.49
2023-04-10T05:54:26.479Z,29.49
2023-04-10T05:54:56.896Z,29.49
2023-04-10T05:55:27.323Z,29.48
2023-04-10T05:55:57.743Z,29.48
2023-04-10T05:56:28.178Z,29.48
2023-04-10T05:56:58.601Z,29.48
2023-04-10T05:57:29.020Z,29.48
2023-04-10T05:57:59.451Z,29.48
2023-04-10T05:58:29.874Z,29.48
2023-04-10T05:59:00.286Z,29.48
2023-04-10T05:59:30.707Z,29.48
2023-04-10T06:00:01.201Z,29.48
2023-04-10T06:00:31.657Z,29.48
2023-04-10T06:01:02.111Z,29.48
2023-04-10T06:01:32.518Z,29.58
2023-04-10T06:02:02.989Z,29.58
2023-04-10T06:02:33.696Z,29.58
2023-04-10T06:03:04.297Z,29.48
2023-04-10T06:03:34.951Z,29.58
2023-04-10T06:04:05.598Z,29.48
2023-04-10T06:04:36.362Z,29.58
2023-04-10T06:05:07.060Z,29.48
2023-04-10T06:05:37.448Z,29.58
2023-04-10T06:06:07.860Z,29.58
2023-04-10T06:06:38.312Z,29.58
2023-04-10T06:07:08.726Z,29.58
2023-04-10T06:07:39.154Z,29.48
2023-04-10T06:08:09.568Z,29.48
2023-04-10T06:08:39.989Z,29.48
2023-04-10T06:09:10.414Z,29.58
2023-04-10T06:09:40.831Z,29.58
2023-04-10T06:10:11.255Z,29.58
2023-04-10T06:10:41.672Z,29.58
2023-04-10T06:11:12.097Z,29.58
2023-04-10T06:11:42.531Z,29.58
2023-04-10T06:12:12.955Z,29.58
2023-04-10T06:12:43.374Z,29.58
2023-04-10T06:13:13.794Z,29.58
2023-04-10T06:13:44.219Z,29.57
2023-04-10T06:14:14.659Z,29.57
2023-04-10T06:14:45.071Z,29.47
2023-04-10T06:15:15.494Z,29.57
2023-04-10T06:15:45.962Z,29.47
2023-04-10T06:16:16.452Z,29.57
2023-04-10T06:16:46.879Z,29.47
2023-04-10T06:17:17.304Z,29.47
2023-04-10T06:17:47.789Z,29.47
2023-04-10T06:18:18.226Z,29.57
2023-04-10T06:18:48.655Z,29.57
2023-04-10T06:19:19.076Z,29.47
2023-04-10T06:19:49.502Z,29.57
2023-04-10T06:20:19.938Z,29.57
2023-04-10T06:20:50.367Z,29.57
2023-04-10T06:21:20.791Z,29.57
2023-04-10T06:21:53.870Z,29.57
2023-04-10T06:22:24.794Z,29.57
2023-04-10T06:22:55.523Z,29.57
2023-04-10T06:23:25.922Z,29.57
2023-04-10T06:23:56.604Z,29.57
2023-04-10T06:24:27.034Z,29.57
2023-04-10T06:24:57.456Z,29.57
2023-04-10T06:25:27.888Z,29.67
2023-04-10T06:25:58.303Z,29.67
2023-04-10T06:26:28.726Z,29.67
2023-04-10T06:26:59.177Z,29.67
2023-04-10T06:27:29.596Z,29.67
2023-04-10T06:28:00.030Z,29.67
2023-04-10T06:28:30.446Z,29.67
2023-04-10T06:29:00.866Z,29.67
2023-04-10T06:29:31.291Z,29.67
2023-04-10T06:30:01.719Z,29.67
2023-04-10T06:30:32.133Z,29.67
2023-04-10T06:31:02.595Z,29.67
2023-04-10T06:31:33.043Z,29.67
2023-04-10T06:32:03.491Z,29.67